createdAt,value
2019-01-23T00:02:10.293Z,-4.50
2019-01-23T00:04:38.793Z,-4.60
2019-01-23T00:07:07.309Z,-4.60
2019-01-23T00:09:35.750Z,-4.60
2019-01-23T00:12:04.642Z,-4.60
2019-01-23T00:14:33.063Z,-4.60
2019-01-23T00:17:01.511Z,-4.60
2019-01-23T00:19:29.966Z,-4.60
2019-01-23T00:21:58.389Z,-4.70
2019-01-23T00:24:26.835Z,-4.70
2019-01-23T00:26:55.261Z,-4.70
2019-01-23T00:29:23.728Z,-4.70
2019-01-23T00:31:52.163Z,-4.60
2019-01-23T00:34:20.610Z,-4.60
2019-01-23T00:36:49.042Z,-4.70
2019-01-23T00:39:17.524Z,-4.70
2019-01-23T00:41:45.930Z,-4.70
2019-01-23T00:44:14.394Z,-4.70
2019-01-23T00:46:42.967Z,-4.70
2019-01-23T00:49:11.413Z,-4.70
2019-01-23T00:51:39.932Z,-4.80
2019-01-23T00:54:08.735Z,-4.70
2019-01-23T00:56:37.174Z,-4.70
2019-01-23T00:59:05.678Z,-4.60
2019-01-23T01:01:34.304Z,-4.60
2019-01-23T01:04:02.894Z,-4.60
2019-01-23T01:06:31.328Z,-4.70
2019-01-23T01:08:59.846Z,-4.70
2019-01-23T01:11:28.307Z,-4.70
2019-01-23T01:13:56.735Z,-4.70
2019-01-23T01:16:25.193Z,-4.70
2019-01-23T01:22:00.618Z,-4.80
2019-01-23T01:24:29.038Z,-4.80
2019-01-23T01:26:57.487Z,-4.80
2019-01-23T01:29:25.928Z,-4.80
2019-01-23T01:31:54.373Z,-4.80
2019-01-23T01:34:22.797Z,-4.90
2019-01-23T01:36:51.237Z,-4.80
2019-01-23T01:39:19.670Z,-4.90
2019-01-23T01:41:48.133Z,-4.80
2019-01-23T01:44:16.558Z,-4.90
2019-01-23T01:46:45.013Z,-4.90
2019-01-23T01:49:13.442Z,-4.80
2019-01-23T01:51:41.885Z,-4.80
2019-01-23T01:54:10.374Z,-4.80
2019-01-23T01:56:38.814Z,-4.90
2019-01-23T01:59:07.247Z,-4.90
2019-01-23T02:01:35.700Z,-4.90
2019-01-23T02:04:04.260Z,-4.90
2019-01-23T02:06:32.690Z,-4.90
2019-01-23T02:09:01.135Z,-4.80
2019-01-23T02:11:29.559Z,-4.90
2019-01-23T02:13:58.002Z,-4.90
2019-01-23T02:16:26.431Z,-4.90
2019-01-23T02:18:54.895Z,-4.90
2019-01-23T02:21:23.319Z,-4.90
2019-01-23T02:23:51.759Z,-4.90
2019-01-23T02:26:20.186Z,-4.90
2019-01-23T02:28:48.636Z,-4.90
2019-01-23T02:31:17.139Z,-4.90
2019-01-23T02:33:45.576Z,-4.90
2019-01-23T02:36:14.007Z,-4.90
2019-01-23T02:38:42.466Z,-4.90
2019-01-23T02:41:10.890Z,-4.90
2019-01-23T02:43:39.339Z,-5.00
2019-01-23T02:46:07.763Z,-5.00
2019-01-23T02:48:36.206Z,-5.00
2019-01-23T02:51:23.970Z,-5.00
2019-01-23T02:53:52.423Z,-5.00
2019-01-23T02:56:20.842Z,-5.00
2019-01-23T02:58:49.286Z,-5.00
2019-01-23T03:01:17.709Z,-5.00
2019-01-23T03:03:46.162Z,-5.00
2019-01-23T03:06:14.599Z,-5.00
2019-01-23T03:08:43.095Z,-5.00
2019-01-23T03:11:11.719Z,-5.00
2019-01-23T03:13:40.205Z,-5.00
2019-01-23T03:16:08.659Z,-5.00
2019-01-23T03:18:37.095Z,-5.00
2019-01-23T03:21:05.615Z,-5.00
2019-01-23T03:23:34.315Z,-5.10
2019-01-23T03:26:02.759Z,-5.10
2019-01-23T03:28:31.178Z,-5.10
2019-01-23T03:30:59.653Z,-5.00
2019-01-23T03:33:28.179Z,-5.00
2019-01-23T03:35:56.662Z,-5.00
2019-01-23T03:38:25.089Z,-5.00
2019-01-23T03:40:53.543Z,-5.00
2019-01-23T03:43:21.971Z,-5.00
2019-01-23T03:45:50.422Z,-5.00
2019-01-23T03:48:18.847Z,-4.90
2019-01-23T03:50:47.297Z,-5.00
2019-01-23T03:53:15.731Z,-5.00
2019-01-23T03:55:44.241Z,-5.00
2019-01-23T03:58:12.741Z,-5.00
2019-01-23T04:00:41.262Z,-5.00
2019-01-23T04:03:09.838Z,-5.10
2019-01-23T04:05:38.278Z,-5.00
2019-01-23T04:08:06.735Z,-5.10
2019-01-23T04:10:35.166Z,-5.10
2019-01-23T04:13:03.674Z,-5.00
2019-01-23T04:15:32.105Z,-5.00
2019-01-23T04:18:00.546Z,-5.00
2019-01-23T04:20:29.147Z,-5.00
2019-01-23T04:22:57.601Z,-5.00
2019-01-23T04:25:26.046Z,-4.90
2019-01-23T04:27:54.497Z,-4.90
2019-01-23T04:30:24.468Z,-4.90
2019-01-23T04:32:52.979Z,-5.00
2019-01-23T04:35:21.652Z,-5.00
2019-01-23T04:37:50.246Z,-5.00
2019-01-23T04:40:18.816Z,-4.90
2019-01-23T04:42:47.384Z,-4.90
2019-01-23T04:45:17.302Z,-5.00
2019-01-23T04:47:45.798Z,-5.00
2019-01-23T04:50:16.661Z,-4.90
2019-01-23T04:52:56.111Z,-4.90
2019-01-23T04:55:24.546Z,-4.90
2019-01-23T04:57:52.975Z,-4.90
2019-01-23T05:00:23.151Z,-4.90
2019-01-23T05:02:51.594Z,-4.90
2019-01-23T05:05:20.279Z,-4.90
2019-01-23T05:07:48.695Z,-4.90
2019-01-23T05:10:17.143Z,-4.90
2019-01-23T05:12:45.750Z,-4.90
2019-01-23T05:15:14.272Z,-4.90
2019-01-23T05:17:42.702Z,-4.90
2019-01-23T05:20:13.483Z,-4.90
2019-01-23T05:22:41.908Z,-5.00
2019-01-23T05:25:11.417Z,-5.00
2019-01-23T05:27:39.844Z,-5.00
2019-01-23T05:30:11.374Z,-4.90
2019-01-23T05:32:39.795Z,-5.00
2019-01-23T05:35:09.795Z,-4.90
2019-01-23T05:37:38.236Z,-4.90
2019-01-23T05:40:11.130Z,-4.90
2019-01-23T05:42:39.566Z,-4.90
2019-01-23T05:45:10.657Z,-4.90
2019-01-23T05:47:39.242Z,-4.90
2019-01-23T05:50:14.066Z,-4.90
2019-01-23T05:52:42.667Z,-4.90
2019-01-23T05:55:12.454Z,-4.90
2019-01-23T05:57:40.882Z,-5.00
2019-01-23T06:00:12.416Z,-5.10
2019-01-23T06:02:40.873Z,-5.10
2019-01-23T06:05:10.335Z,-5.10
2019-01-23T06:07:38.793Z,-5.00
2019-01-23T06:10:09.566Z,-5.00
2019-01-23T06:12:38.007Z,-5.00
2019-01-23T06:15:09.971Z,-5.10
2019-01-23T06:17:38.426Z,-5.10
2019-01-23T06:20:12.798Z,-5.10
2019-01-23T06:22:41.390Z,-5.10
2019-01-23T06:25:10.059Z,-5.00
2019-01-23T06:27:38.523Z,-5.00
2019-01-23T06:30:13.215Z,-5.00
2019-01-23T06:32:41.668Z,-4.90
2019-01-23T06:35:10.333Z,-5.00
2019-01-23T06:37:38.786Z,-5.00
2019-01-23T06:40:10.035Z,-5.00
2019-01-23T06:42:38.550Z,-5.00
2019-01-23T06:45:10.250Z,-5.00
2019-01-23T06:47:39.970Z,-5.00
2019-01-23T06:50:14.174Z,-5.00
2019-01-23T06:52:42.622Z,-5.00
2019-01-23T06:55:11.229Z,-5.00
2019-01-23T06:57:39.668Z,-4.90
2019-01-23T07:00:17.072Z,-4.90
2019-01-23T07:02:41.686Z,-5.00
2019-01-23T07:05:11.072Z,-5.00
2019-01-23T07:07:39.507Z,-5.00
2019-01-23T07:10:11.438Z,-4.90
2019-01-23T07:12:39.914Z,-4.90
2019-01-23T07:15:11.002Z,-4.90
2019-01-23T07:17:39.497Z,-5.00
2019-01-23T07:20:16.372Z,-4.90
2019-01-23T07:22:44.799Z,-4.90
2019-01-23T07:25:13.394Z,-4.90
2019-01-23T07:27:41.902Z,-4.90
2019-01-23T07:30:24.168Z,-4.90
2019-01-23T07:32:49.418Z,-4.90
2019-01-23T07:35:17.857Z,-4.90
2019-01-23T07:37:46.299Z,-4.90
2019-01-23T07:40:14.921Z,-4.90
2019-01-23T07:42:43.375Z,-4.90
2019-01-23T07:45:17.922Z,-4.90
2019-01-23T07:47:46.422Z,-4.90
2019-01-23T07:50:15.610Z,-4.90
2019-01-23T07:52:44.103Z,-4.90
2019-01-23T07:55:15.199Z,-4.90
2019-01-23T07:57:43.622Z,-4.90
2019-01-23T08:00:17.246Z,-4.80
2019-01-23T08:02:45.691Z,-4.80
2019-01-23T08:05:19.521Z,-4.90
2019-01-23T08:07:47.500Z,-4.80
2019-01-23T08:10:18.067Z,-4.80
2019-01-23T08:12:46.865Z,-4.80
2019-01-23T08:15:21.071Z,-4.80
2019-01-23T08:17:49.565Z,-4.80
2019-01-23T08:20:20.269Z,-4.80
2019-01-23T08:22:48.786Z,-4.80
2019-01-23T08:25:17.455Z,-4.70
2019-01-23T08:27:45.975Z,-4.70
2019-01-23T08:30:17.341Z,-4.70
2019-01-23T08:32:45.946Z,-4.70
2019-01-23T08:35:15.212Z,-4.70
2019-01-23T08:37:43.731Z,-4.60
2019-01-23T08:40:14.974Z,-4.60
2019-01-23T08:42:43.666Z,-4.60
2019-01-23T08:45:13.727Z,-4.60
2019-01-23T08:47:42.235Z,-4.60
2019-01-23T08:50:19.297Z,-4.50
2019-01-23T08:52:47.961Z,-4.50
2019-01-23T08:55:16.400Z,-4.40
2019-01-23T08:57:44.906Z,-4.50
2019-01-23T09:00:16.175Z,-4.40
2019-01-23T09:02:44.898Z,-4.40
2019-01-23T09:05:14.074Z,-4.40
2019-01-23T09:07:44.349Z,-4.40
2019-01-23T09:10:19.949Z,-4.50
2019-01-23T09:12:48.375Z,-4.40
2019-01-23T09:15:17.761Z,-4.40
2019-01-23T09:17:46.265Z,-4.40
2019-01-23T09:20:17.158Z,-4.30
2019-01-23T09:22:45.742Z,-4.30
2019-01-23T09:25:16.690Z,-4.40
2019-01-23T09:27:45.184Z,-4.30
2019-01-23T09:30:25.439Z,-4.30
2019-01-23T09:33:24.206Z,-4.30
2019-01-23T09:36:07.437Z,-4.30
2019-01-23T09:38:38.979Z,-4.40
2019-01-23T09:41:13.086Z,-4.40
2019-01-23T09:44:07.068Z,-4.50
2019-01-23T09:46:41.229Z,-4.40
2019-01-23T09:49:12.757Z,-4.30
2019-01-23T09:52:00.797Z,-4.30
2019-01-23T09:54:29.315Z,-4.30
2019-01-23T09:56:57.750Z,-4.30
2019-01-23T09:59:26.216Z,-4.30
2019-01-23T10:01:54.675Z,-4.20
2019-01-23T10:04:23.119Z,-4.20
2019-01-23T10:06:51.584Z,-4.10
2019-01-23T10:09:20.037Z,-4.20
2019-01-23T10:11:48.516Z,-4.20
2019-01-23T10:14:16.960Z,-4.20
2019-01-23T10:16:45.414Z,-4.20
2019-01-23T10:19:13.848Z,-4.30
2019-01-23T10:21:42.282Z,-4.20
2019-01-23T10:24:10.714Z,-4.20
2019-01-23T10:26:39.513Z,-4.10
2019-01-23T10:29:07.927Z,-4.00
2019-01-23T10:31:36.393Z,-3.90
2019-01-23T10:34:05.155Z,-3.80
2019-01-23T10:36:33.627Z,-3.90
2019-01-23T10:39:02.055Z,-3.90
2019-01-23T10:41:30.583Z,-3.90
2019-01-23T10:43:59.017Z,-3.80
2019-01-23T10:46:27.522Z,-3.90
2019-01-23T10:48:56.001Z,-3.80
2019-01-23T10:51:24.500Z,-3.70
2019-01-23T10:53:52.956Z,-3.70
2019-01-23T10:56:21.527Z,-3.80
2019-01-23T10:58:49.987Z,-3.80
2019-01-23T11:01:18.442Z,-3.70
2019-01-23T11:03:46.950Z,-3.70
2019-01-23T11:06:15.468Z,-3.60
2019-01-23T11:08:44.076Z,-3.70
2019-01-23T11:11:12.499Z,-3.70
2019-01-23T11:13:40.959Z,-3.50
2019-01-23T11:16:09.392Z,-3.60
2019-01-23T11:18:37.874Z,-3.50
2019-01-23T11:21:06.328Z,-3.40
2019-01-23T11:23:34.778Z,-3.30
2019-01-23T11:26:04.999Z,-3.30
2019-01-23T11:28:33.459Z,-3.20
2019-01-23T11:31:01.884Z,-3.20
2019-01-23T11:33:31.182Z,-3.20
2019-01-23T11:35:59.683Z,-3.30
2019-01-23T11:38:28.150Z,-3.20
2019-01-23T11:40:56.590Z,-3.20
2019-01-23T11:43:25.042Z,-3.20
2019-01-23T11:45:53.481Z,-3.40
2019-01-23T11:48:21.912Z,-3.40
2019-01-23T11:50:50.382Z,-3.30
2019-01-23T11:53:18.843Z,-3.30
2019-01-23T11:55:47.337Z,-3.20
2019-01-23T11:58:15.775Z,-3.30
2019-01-23T12:00:44.307Z,-3.20
2019-01-23T12:03:12.815Z,-3.20
2019-01-23T12:05:41.318Z,-3.10
2019-01-23T12:08:09.959Z,-3.20
2019-01-23T12:10:38.414Z,-3.20
2019-01-23T12:13:07.015Z,-3.10
2019-01-23T12:15:40.817Z,-3.10
2019-01-23T12:18:05.770Z,-3.10
2019-01-23T12:20:34.290Z,-3.10
2019-01-23T12:23:02.863Z,-3.20
2019-01-23T12:25:31.444Z,-3.30
2019-01-23T12:27:59.962Z,-3.20
2019-01-23T12:30:31.359Z,-3.30
2019-01-23T12:32:59.796Z,-3.40
2019-01-23T12:35:28.478Z,-3.30
2019-01-23T12:37:57.104Z,-3.40
2019-01-23T12:40:25.609Z,-3.40
2019-01-23T12:42:54.074Z,-3.60
2019-01-23T12:45:25.254Z,-3.60
2019-01-23T12:47:53.877Z,-3.50
2019-01-23T12:50:24.946Z,-3.40
2019-01-23T12:52:53.500Z,-3.30
2019-01-23T12:55:21.934Z,-3.20
2019-01-23T12:57:50.407Z,-3.30
2019-01-23T13:00:21.729Z,-3.30
2019-01-23T13:02:50.258Z,-3.40
2019-01-23T13:05:20.927Z,-3.30
2019-01-23T13:07:49.440Z,-3.20
2019-01-23T13:10:22.384Z,-3.10
2019-01-23T13:12:51.398Z,-3.10
2019-01-23T13:15:22.070Z,-3.00
2019-01-23T13:17:50.593Z,-3.00
2019-01-23T13:20:21.461Z,-2.90
2019-01-23T13:22:49.906Z,-3.00
2019-01-23T13:25:23.080Z,-3.10
2019-01-23T13:27:52.073Z,-2.90
2019-01-23T13:30:23.244Z,-2.90
2019-01-23T13:32:53.322Z,-3.10
2019-01-23T13:35:24.575Z,-3.00
2019-01-23T13:37:53.070Z,-3.10
2019-01-23T13:40:26.857Z,-3.00
2019-01-23T13:42:55.363Z,-3.00
2019-01-23T13:45:23.946Z,-3.10
2019-01-23T13:47:52.375Z,-3.10
2019-01-23T13:50:20.892Z,-3.20
2019-01-23T13:52:49.380Z,-3.30
2019-01-23T13:55:22.775Z,-3.40
2019-01-23T13:57:51.411Z,-3.30
2019-01-23T14:00:28.741Z,-3.40
2019-01-23T14:02:57.335Z,-3.50
2019-01-23T14:05:25.855Z,-3.50
2019-01-23T14:07:54.300Z,-3.50
2019-01-23T14:10:22.824Z,-3.50
2019-01-23T14:12:51.386Z,-3.40
2019-01-23T14:15:28.471Z,-3.40
2019-01-23T14:17:56.906Z,-3.50
2019-01-23T14:20:25.443Z,-3.60
2019-01-23T14:22:54.023Z,-3.60
2019-01-23T14:25:22.513Z,-3.50
2019-01-23T14:27:52.558Z,-3.60
2019-01-23T14:30:32.727Z,-3.50
2019-01-23T14:33:01.240Z,-3.50
2019-01-23T14:35:30.535Z,-3.50
2019-01-23T14:38:00.771Z,-3.50
2019-01-23T14:40:29.192Z,-3.50
2019-01-23T14:42:57.636Z,-3.50
2019-01-23T14:45:26.311Z,-3.50
2019-01-23T14:47:54.830Z,-3.60
2019-01-23T14:50:24.904Z,-3.60
2019-01-23T14:52:54.106Z,-3.70
2019-01-23T14:55:22.778Z,-3.60
2019-01-23T14:57:51.308Z,-3.70
2019-01-23T15:00:25.618Z,-3.80
2019-01-23T15:02:54.083Z,-3.90
2019-01-23T15:05:22.595Z,-3.90
2019-01-23T15:07:51.061Z,-4.00
2019-01-23T15:10:25.190Z,-4.00
2019-01-23T15:12:54.525Z,-4.00
2019-01-23T15:15:23.091Z,-4.00
2019-01-23T15:17:52.287Z,-3.90
2019-01-23T15:20:26.703Z,-3.90
2019-01-23T15:22:55.157Z,-3.90
2019-01-23T15:25:23.749Z,-4.00
2019-01-23T15:27:52.207Z,-4.10
2019-01-23T15:30:23.026Z,-4.10
2019-01-23T15:32:52.400Z,-4.10
2019-01-23T15:35:21.891Z,-4.00
2019-01-23T15:37:50.395Z,-4.00
2019-01-23T15:40:24.732Z,-4.00
2019-01-23T15:42:53.163Z,-4.00
2019-01-23T15:45:21.770Z,-4.00
2019-01-23T15:47:50.232Z,-4.00
2019-01-23T15:50:21.527Z,-4.10
2019-01-23T15:52:50.022Z,-4.10
2019-01-23T15:55:21.088Z,-4.20
2019-01-23T15:57:49.535Z,-4.30
2019-01-23T16:00:26.907Z,-4.20
2019-01-23T16:02:55.914Z,-4.30
2019-01-23T16:05:24.696Z,-4.20
2019-01-23T16:07:53.198Z,-4.20
2019-01-23T16:10:24.535Z,-4.20
2019-01-23T16:12:52.972Z,-4.20
2019-01-23T16:15:24.223Z,-4.20
2019-01-23T16:17:53.052Z,-4.20
2019-01-23T16:20:21.681Z,-4.20
2019-01-23T16:22:50.314Z,-4.20
2019-01-23T16:25:18.760Z,-4.20
2019-01-23T16:27:47.265Z,-4.20
2019-01-23T16:30:30.971Z,-4.20
2019-01-23T16:32:59.480Z,-4.30
2019-01-23T16:35:27.987Z,-4.30
2019-01-23T16:37:56.501Z,-4.30
2019-01-23T16:40:24.959Z,-4.30
2019-01-23T16:42:53.462Z,-4.30
2019-01-23T16:45:22.616Z,-4.30
2019-01-23T16:47:51.065Z,-4.40
2019-01-23T16:50:25.023Z,-4.30
2019-01-23T16:52:54.047Z,-4.30
2019-01-23T16:55:23.093Z,-4.30
2019-01-23T16:57:52.086Z,-4.30
2019-01-23T17:00:23.023Z,-4.30
2019-01-23T17:02:53.146Z,-4.30
2019-01-23T17:05:30.068Z,-4.30
2019-01-23T17:08:00.071Z,-4.30
2019-01-23T17:10:29.172Z,-4.40
2019-01-23T17:12:58.071Z,-4.30
2019-01-23T17:15:26.651Z,-4.30
2019-01-23T17:17:55.177Z,-4.30
2019-01-23T17:20:26.931Z,-4.30
2019-01-23T17:22:55.392Z,-4.30
2019-01-23T17:25:23.845Z,-4.40
2019-01-23T17:27:52.304Z,-4.40
2019-01-23T17:30:21.884Z,-4.40
2019-01-23T17:32:50.350Z,-4.50
2019-01-23T17:35:20.620Z,-4.50
2019-01-23T17:37:49.159Z,-4.50
2019-01-23T17:40:22.294Z,-4.40
2019-01-23T17:42:50.942Z,-4.40
2019-01-23T17:45:25.069Z,-4.40
2019-01-23T17:47:53.744Z,-4.40
2019-01-23T17:50:23.738Z,-4.40
2019-01-23T17:52:52.508Z,-4.40
2019-01-23T17:55:24.031Z,-4.40
2019-01-23T17:57:52.823Z,-4.30
2019-01-23T18:00:25.836Z,-4.40
2019-01-23T18:02:56.307Z,-4.50
2019-01-23T18:05:25.086Z,-4.50
2019-01-23T18:07:55.509Z,-4.50
2019-01-23T18:10:24.209Z,-4.50
2019-01-23T18:12:52.635Z,-4.60
2019-01-23T18:15:35.991Z,-4.50
2019-01-23T18:18:04.867Z,-4.50
2019-01-23T18:20:33.510Z,-4.50
2019-01-23T18:23:01.976Z,-4.50
2019-01-23T18:25:30.498Z,-4.50
2019-01-23T18:27:58.931Z,-4.50
2019-01-23T18:30:48.998Z,-4.50
2019-01-23T18:33:20.491Z,-4.60
2019-01-23T18:36:01.519Z,-4.50
2019-01-23T18:38:33.065Z,-4.70
2019-01-23T18:41:07.188Z,-4.70
2019-01-23T18:43:44.435Z,-4.70
2019-01-23T18:46:50.862Z,-4.60
2019-01-23T18:49:42.079Z,-4.60
2019-01-23T18:52:13.411Z,-4.70
2019-01-23T18:54:43.117Z,-4.60
2019-01-23T18:57:26.640Z,-4.60
2019-01-23T18:59:59.132Z,-4.50
2019-01-23T19:02:26.772Z,-4.50
2019-01-23T19:04:55.197Z,-4.60
2019-01-23T19:07:23.785Z,-4.50
2019-01-23T19:09:52.189Z,-4.50
2019-01-23T19:26:51.219Z,-4.60
2019-01-23T19:29:19.869Z,-4.60
2019-01-23T19:31:48.340Z,-4.60
2019-01-23T19:34:16.799Z,-4.70
2019-01-23T19:36:45.300Z,-4.70
2019-01-23T19:39:13.806Z,-4.60
2019-01-23T19:41:42.307Z,-4.60
2019-01-23T19:44:10.902Z,-4.60
2019-01-23T19:46:39.412Z,-4.50
2019-01-23T19:49:08.018Z,-4.50
2019-01-23T19:51:36.533Z,-4.50
2019-01-23T19:54:05.778Z,-4.60
2019-01-23T19:56:34.370Z,-4.50
2019-01-23T19:59:02.954Z,-4.50
2019-01-23T20:01:31.396Z,-4.60
2019-01-23T20:03:59.956Z,-4.60
2019-01-23T20:06:28.436Z,-4.60
2019-01-23T20:08:56.850Z,-4.60
2019-01-23T20:11:25.465Z,-4.60
2019-01-23T20:13:53.950Z,-4.70
2019-01-23T20:16:22.458Z,-4.60
2019-01-23T20:18:50.913Z,-4.60
2019-01-23T20:21:20.278Z,-4.60
2019-01-23T20:23:48.771Z,-4.60
2019-01-23T20:26:17.290Z,-4.60
2019-01-23T20:28:45.728Z,-4.60
2019-01-23T20:31:14.307Z,-4.60
2019-01-23T20:33:42.871Z,-4.60
2019-01-23T20:36:11.477Z,-4.60
2019-01-23T20:38:39.941Z,-4.60
2019-01-23T20:41:08.542Z,-4.60
2019-01-23T20:43:37.172Z,-4.60
2019-01-23T20:46:05.898Z,-4.50
2019-01-23T20:48:34.334Z,-4.60
2019-01-23T20:51:02.972Z,-4.60
2019-01-23T20:53:31.411Z,-4.60
2019-01-23T20:55:59.946Z,-4.60
2019-01-23T20:58:28.468Z,-4.60
2019-01-23T21:00:57.131Z,-4.60
2019-01-23T21:03:25.635Z,-4.60
2019-01-23T21:05:54.243Z,-4.60
2019-01-23T21:08:22.786Z,-4.70
2019-01-23T21:10:51.367Z,-4.70
2019-01-23T21:13:19.797Z,-4.70
2019-01-23T21:15:48.402Z,-4.60
2019-01-23T21:18:16.828Z,-4.60
2019-01-23T21:20:45.292Z,-4.60
2019-01-23T21:23:13.801Z,-4.60
2019-01-23T21:25:42.282Z,-4.60
2019-01-23T21:28:10.770Z,-4.60
2019-01-23T21:30:39.207Z,-4.60
2019-01-23T21:33:07.654Z,-4.60
2019-01-23T21:35:36.191Z,-4.60
2019-01-23T21:38:04.966Z,-4.70
2019-01-23T21:40:33.423Z,-4.60
2019-01-23T21:43:02.870Z,-4.60
2019-01-23T21:45:31.752Z,-4.60
2019-01-23T21:48:00.196Z,-4.60
2019-01-23T21:50:28.692Z,-4.60
2019-01-23T21:52:57.155Z,-4.60
2019-01-23T21:55:25.597Z,-4.60
2019-01-23T21:57:54.111Z,-4.60
2019-01-23T22:00:25.626Z,-4.70
2019-01-23T22:02:55.321Z,-4.70
2019-01-23T22:05:24.082Z,-4.80
2019-01-23T22:07:53.762Z,-4.80
2019-01-23T22:10:22.550Z,-4.80
2019-01-23T22:12:50.979Z,-4.70
2019-01-23T22:15:25.397Z,-4.80
2019-01-23T22:17:53.962Z,-4.80
2019-01-23T22:20:22.847Z,-4.80
2019-01-23T22:22:51.511Z,-4.80
2019-01-23T22:25:25.141Z,-4.80
2019-01-23T22:27:53.941Z,-4.90
2019-01-23T22:30:24.907Z,-4.90
2019-01-23T22:32:53.339Z,-5.00
2019-01-23T22:35:22.059Z,-4.90
2019-01-23T22:37:50.490Z,-5.00
2019-01-23T22:40:20.271Z,-5.00
2019-01-23T22:42:48.771Z,-5.00
2019-01-23T22:45:18.955Z,-4.90
2019-01-23T22:47:47.446Z,-5.00
2019-01-23T22:50:18.598Z,-5.00
2019-01-23T22:52:47.212Z,-5.00
2019-01-23T22:55:16.090Z,-5.00
2019-01-23T22:57:44.677Z,-5.10
2019-01-23T23:00:39.187Z,-5.10
2019-01-23T23:03:09.862Z,-5.00
2019-01-23T23:05:38.466Z,-5.00
2019-01-23T23:08:07.156Z,-5.10
2019-01-23T23:10:35.673Z,-5.00
2019-01-23T23:13:04.463Z,-5.10
2019-01-23T23:15:32.883Z,-5.10
2019-01-23T23:18:01.354Z,-5.10
2019-01-23T23:20:29.811Z,-5.10
2019-01-23T23:22:59.928Z,-5.10
2019-01-23T23:25:28.518Z,-5.20
2019-01-23T23:27:57.029Z,-5.20
2019-01-23T23:30:26.760Z,-5.10
2019-01-23T23:32:56.176Z,-5.20
2019-01-23T23:35:24.674Z,-5.30
2019-01-23T23:37:53.138Z,-5.20
2019-01-23T23:40:21.560Z,-5.20
2019-01-23T23:42:50.006Z,-5.30
2019-01-23T23:45:19.168Z,-5.30
2019-01-23T23:47:47.756Z,-5.30
2019-01-23T23:50:17.518Z,-5.30
2019-01-23T23:52:46.203Z,-5.30
2019-01-23T23:55:16.272Z,-5.30
2019-01-23T23:57:44.788Z,-5.30
